createdAt,value
2017-12-29T00:04:15.176Z,76.30
2017-12-29T00:09:16.726Z,76.20
2017-12-29T00:14:19.119Z,76.20
2017-12-29T00:19:20.617Z,76.20
2017-12-29T00:24:22.849Z,76.30
2017-12-29T00:29:24.365Z,76.20
2017-12-29T00:34:26.683Z,76.50
2017-12-29T00:39:28.184Z,76.50
2017-12-29T00:44:29.702Z,76.80
2017-12-29T00:49:31.266Z,76.70
2017-12-29T00:54:32.790Z,77.20
2017-12-29T00:59:34.281Z,77.40
2017-12-29T01:04:36.579Z,77.80
2017-12-29T01:09:38.171Z,77.80
2017-12-29T01:14:40.291Z,78.00
2017-12-29T01:19:41.793Z,78.50
2017-12-29T01:24:44.049Z,78.60
2017-12-29T01:29:45.650Z,78.60
2017-12-29T01:34:47.949Z,79.50
2017-12-29T01:39:49.500Z,79.50
2017-12-29T01:44:51.784Z,80.30
2017-12-29T01:49:54.066Z,80.60
2017-12-29T01:54:56.316Z,80.70
2017-12-29T01:59:57.901Z,80.70
2017-12-29T02:04:59.420Z,80.20
2017-12-29T02:10:00.929Z,80.30
2017-12-29T02:15:02.401Z,80.30
2017-12-29T02:20:03.950Z,80.20
2017-12-29T02:25:05.475Z,80.40
2017-12-29T02:30:07.257Z,80.30
2017-12-29T02:35:08.761Z,79.80
2017-12-29T02:40:10.231Z,80.00
2017-12-29T02:45:11.943Z,80.10
2017-12-29T02:50:13.470Z,79.80
2017-12-29T02:55:15.010Z,79.90
2017-12-29T03:00:16.534Z,80.20
2017-12-29T03:05:18.797Z,79.60
2017-12-29T03:10:20.308Z,79.50
2017-12-29T03:15:21.800Z,79.50
2017-12-29T03:20:23.350Z,79.70
2017-12-29T03:25:25.885Z,79.60
2017-12-29T03:30:27.468Z,79.70
2017-12-29T03:35:29.726Z,79.40
2017-12-29T03:40:31.269Z,78.90
2017-12-29T03:45:32.861Z,78.30
2017-12-29T03:50:34.408Z,77.70
2017-12-29T03:55:35.918Z,77.20
2017-12-29T04:00:37.437Z,76.60
2017-12-29T04:05:38.981Z,75.80
2017-12-29T04:10:40.558Z,75.60
2017-12-29T04:15:42.077Z,75.80
2017-12-29T04:20:43.624Z,76.00
2017-12-29T04:25:45.115Z,76.00
2017-12-29T04:30:46.676Z,75.50
2017-12-29T04:35:48.361Z,75.40
2017-12-29T04:40:49.868Z,74.70
2017-12-29T04:45:51.371Z,74.30
2017-12-29T04:50:52.935Z,74.80
2017-12-29T04:55:54.432Z,75.20
2017-12-29T05:00:55.953Z,75.90
2017-12-29T05:05:57.523Z,76.30
2017-12-29T05:10:59.063Z,76.30
2017-12-29T05:16:00.565Z,76.00
2017-12-29T05:21:01.985Z,75.60
2017-12-29T05:26:04.241Z,75.00
2017-12-29T05:31:05.947Z,74.90
2017-12-29T05:36:07.524Z,74.60
2017-12-29T05:41:08.993Z,74.50
2017-12-29T05:46:10.473Z,74.50
2017-12-29T05:51:12.037Z,74.30
2017-12-29T05:56:13.564Z,74.60
2017-12-29T06:01:15.813Z,75.00
2017-12-29T06:06:17.370Z,74.90
2017-12-29T06:11:18.909Z,74.70
2017-12-29T06:16:20.402Z,74.50
2017-12-29T06:21:21.907Z,74.60
2017-12-29T06:26:23.433Z,74.50
2017-12-29T06:31:25.002Z,74.60
2017-12-29T06:36:26.508Z,74.00
2017-12-29T06:41:28.009Z,73.90
2017-12-29T06:46:29.580Z,74.00
2017-12-29T06:51:31.127Z,73.90
2017-12-29T06:56:33.524Z,74.00
2017-12-29T07:01:35.808Z,74.30
2017-12-29T07:06:38.084Z,74.50
2017-12-29T07:11:40.351Z,74.60
2017-12-29T07:16:41.900Z,74.60
2017-12-29T07:21:43.536Z,75.10
2017-12-29T07:26:45.120Z,76.40
2017-12-29T07:31:46.672Z,75.20
2017-12-29T07:36:48.229Z,75.40
2017-12-29T07:41:49.733Z,75.10
2017-12-29T07:46:51.215Z,75.30
2017-12-29T07:51:52.697Z,75.40
2017-12-29T07:56:54.224Z,75.60
2017-12-29T08:01:56.052Z,76.10
2017-12-29T08:06:58.300Z,75.40
2017-12-29T08:11:59.868Z,75.40
2017-12-29T08:17:01.510Z,75.30
2017-12-29T08:22:03.055Z,75.30
2017-12-29T08:27:04.641Z,74.80
2017-12-29T08:32:06.149Z,74.20
2017-12-29T08:37:07.726Z,74.20
2017-12-29T08:42:09.174Z,74.30
2017-12-29T08:47:10.719Z,74.20
2017-12-29T08:52:12.221Z,73.90
2017-12-29T08:57:13.833Z,73.10
2017-12-29T09:02:15.349Z,72.20
2017-12-29T09:07:16.892Z,71.60
2017-12-29T09:12:18.406Z,71.00
2017-12-29T09:17:19.930Z,70.30
2017-12-29T09:22:21.473Z,69.70
2017-12-29T09:27:23.008Z,67.10
2017-12-29T09:32:25.590Z,66.60
2017-12-29T09:37:27.153Z,65.90
2017-12-29T09:42:28.658Z,66.80
2017-12-29T09:47:30.178Z,67.00
2017-12-29T09:52:31.911Z,66.60
2017-12-29T09:57:33.443Z,66.60
2017-12-29T10:02:35.113Z,66.30
2017-12-29T10:07:37.388Z,64.90
2017-12-29T10:12:38.940Z,64.70
2017-12-29T10:17:40.474Z,65.80
2017-12-29T10:22:42.083Z,66.40
2017-12-29T10:27:43.631Z,66.40
2017-12-29T10:32:45.166Z,67.50
2017-12-29T10:37:46.728Z,67.10
2017-12-29T10:42:48.284Z,67.60
2017-12-29T10:47:50.574Z,68.10
2017-12-29T10:52:52.875Z,68.30
2017-12-29T10:57:54.419Z,68.10
2017-12-29T11:02:56.699Z,68.80
2017-12-29T11:07:58.977Z,68.70
2017-12-29T11:13:00.602Z,68.70
2017-12-29T11:18:02.160Z,69.90
2017-12-29T11:23:03.701Z,69.70
2017-12-29T11:28:05.993Z,68.50
2017-12-29T11:33:07.562Z,68.40
2017-12-29T11:38:09.124Z,68.30
2017-12-29T11:43:11.368Z,67.30
2017-12-29T11:48:12.895Z,67.30
2017-12-29T11:53:14.425Z,66.30
2017-12-29T11:58:17.818Z,66.00
2017-12-29T12:03:19.412Z,65.70
2017-12-29T12:08:21.684Z,66.80
2017-12-29T12:13:23.258Z,66.80
2017-12-29T12:18:25.525Z,65.90
2017-12-29T12:23:27.597Z,65.80
2017-12-29T12:28:29.133Z,65.90
2017-12-29T12:33:30.676Z,65.80
2017-12-29T12:38:32.272Z,65.10
2017-12-29T12:43:33.829Z,65.00
2017-12-29T12:48:35.373Z,64.50
2017-12-29T12:53:37.633Z,64.30
2017-12-29T12:58:39.241Z,64.30
2017-12-29T13:03:40.826Z,63.60
2017-12-29T13:08:42.349Z,64.30
2017-12-29T13:13:43.928Z,64.70
2017-12-29T13:18:46.230Z,64.90
2017-12-29T13:23:47.856Z,64.80
2017-12-29T13:28:49.426Z,65.00
2017-12-29T13:33:50.973Z,64.80
2017-12-29T13:38:52.557Z,66.10
2017-12-29T13:43:54.109Z,66.10
2017-12-29T13:48:55.645Z,65.70
2017-12-29T13:53:57.178Z,65.50
2017-12-29T13:58:59.481Z,63.80
2017-12-29T14:04:01.758Z,62.20
2017-12-29T14:09:04.095Z,62.70
2017-12-29T14:14:05.691Z,62.70
2017-12-29T14:19:07.213Z,61.60
2017-12-29T14:24:08.707Z,61.90
2017-12-29T14:29:10.234Z,61.90
2017-12-29T14:34:11.789Z,61.60
2017-12-29T14:39:14.107Z,60.10
2017-12-29T14:44:15.573Z,60.00
2017-12-29T14:49:17.145Z,61.00
2017-12-29T14:54:18.639Z,61.80
2017-12-29T14:59:20.238Z,62.70
2017-12-29T15:04:22.564Z,62.40
2017-12-29T15:09:24.268Z,62.40
2017-12-29T15:14:25.787Z,63.00
2017-12-29T15:19:27.301Z,62.10
2017-12-29T15:24:29.002Z,62.70
2017-12-29T15:29:38.423Z,63.10
2017-12-29T15:34:39.913Z,63.10
2017-12-29T15:39:42.297Z,63.10
2017-12-29T15:44:43.836Z,63.10
2017-12-29T15:49:45.398Z,63.30
2017-12-29T15:54:46.962Z,64.50
2017-12-29T15:59:48.497Z,67.30
2017-12-29T16:04:50.078Z,70.40
2017-12-29T16:09:51.875Z,72.50
2017-12-29T16:14:53.380Z,74.60
2017-12-29T16:19:55.847Z,77.20
2017-12-29T16:24:57.401Z,77.00
2017-12-29T16:29:59.199Z,79.80
2017-12-29T16:35:00.736Z,82.00
2017-12-29T16:40:02.323Z,83.50
2017-12-29T16:45:03.886Z,84.70
2017-12-29T16:50:05.408Z,86.00
2017-12-29T16:55:06.933Z,86.90
2017-12-29T17:00:08.475Z,87.60
2017-12-29T17:05:10.021Z,88.20
2017-12-29T17:10:11.468Z,88.30
2017-12-29T17:15:13.712Z,88.60
2017-12-29T17:20:15.265Z,88.50
2017-12-29T17:25:16.974Z,88.60
2017-12-29T17:30:18.501Z,88.70
2017-12-29T17:35:20.085Z,88.70
2017-12-29T17:40:21.703Z,88.70
2017-12-29T17:45:23.247Z,88.60
2017-12-29T17:50:25.531Z,88.60
2017-12-29T17:55:27.818Z,88.50
2017-12-29T18:00:29.996Z,88.60
2017-12-29T18:05:31.540Z,88.50
2017-12-29T18:10:33.154Z,88.30
2017-12-29T18:15:34.660Z,88.10
2017-12-29T18:20:36.143Z,88.10
2017-12-29T18:25:37.671Z,88.10
2017-12-29T18:30:39.242Z,88.00
2017-12-29T18:35:40.792Z,88.00
2017-12-29T18:40:42.242Z,88.00
2017-12-29T18:45:44.432Z,88.40
2017-12-29T18:50:46.668Z,88.30
2017-12-29T18:55:48.203Z,88.10
2017-12-29T19:00:49.714Z,87.90
2017-12-29T19:05:51.208Z,87.50
2017-12-29T19:10:53.568Z,87.80
2017-12-29T19:15:55.155Z,87.80
2017-12-29T19:20:56.853Z,88.00
2017-12-29T19:25:58.409Z,88.00
2017-12-29T19:31:00.716Z,87.90
2017-12-29T19:36:02.305Z,87.90
2017-12-29T19:41:03.887Z,88.00
2017-12-29T19:46:05.478Z,88.10
2017-12-29T19:51:07.074Z,88.30
2017-12-29T19:56:09.354Z,88.20
2017-12-29T20:01:11.679Z,88.30
2017-12-29T20:06:13.212Z,88.20
2017-12-29T20:11:14.756Z,88.30
2017-12-29T20:16:16.269Z,88.40
2017-12-29T20:21:17.859Z,88.40
2017-12-29T20:26:19.329Z,88.40
2017-12-29T20:31:20.870Z,88.50
2017-12-29T20:36:22.428Z,88.50
2017-12-29T20:41:24.017Z,88.50
2017-12-29T20:46:25.531Z,88.70
2017-12-29T20:51:27.203Z,88.70
2017-12-29T20:56:28.740Z,88.60
2017-12-29T21:01:30.249Z,88.70
2017-12-29T21:06:32.604Z,88.80
2017-12-29T21:11:34.141Z,88.80
2017-12-29T21:16:35.718Z,88.80
2017-12-29T21:21:37.327Z,88.90
2017-12-29T21:26:38.927Z,88.90
2017-12-29T21:31:40.488Z,89.10
2017-12-29T21:36:42.808Z,89.10
2017-12-29T21:41:44.256Z,89.10
2017-12-29T21:46:45.840Z,89.20
2017-12-29T21:51:47.344Z,89.30
2017-12-29T21:56:48.877Z,89.50
2017-12-29T22:01:50.619Z,89.50
2017-12-29T22:06:52.167Z,89.70
2017-12-29T22:11:54.374Z,89.70
2017-12-29T22:16:56.648Z,89.50
2017-12-29T22:21:59.054Z,89.50
2017-12-29T22:27:00.592Z,90.30
2017-12-29T22:32:02.889Z,89.50
2017-12-29T22:37:05.207Z,89.40
2017-12-29T22:42:06.765Z,89.30
2017-12-29T22:47:08.300Z,89.50
2017-12-29T22:52:10.604Z,89.50
2017-12-29T22:57:12.117Z,89.50
2017-12-29T23:02:13.673Z,89.40
2017-12-29T23:07:15.228Z,89.20
2017-12-29T23:12:16.916Z,89.10
2017-12-29T23:17:18.448Z,88.90
2017-12-29T23:22:19.965Z,88.70
2017-12-29T23:27:21.511Z,88.60
2017-12-29T23:32:23.092Z,88.80
2017-12-29T23:37:24.720Z,89.80
2017-12-29T23:42:26.267Z,89.00
2017-12-29T23:47:28.573Z,89.10
2017-12-29T23:52:30.930Z,89.00
2017-12-29T23:57:32.465Z,89.00
